Time;durP1;ratioP1;P1;durP2;ratioP2;P2;SDS_P1;SDS_P2;PMS_P1;PMS_P2;Temp;Humidity;BMP_temperature;BMP_pressure;BME280_temperature;BME280_humidity;BME280_pressure;Samples;Min_cycle;Max_cycle;Signal;HPM_P1;HPM_P2
2022/07/05 00:00:47;;;;;;;5.70;2.80;;;13.20;99.90;;;;;;5051645;28;20499;-78
2022/07/05 00:03:13;;;;;;;5.32;2.90;;;13.10;99.90;;;;;;5035092;28;20044;-78
2022/07/05 00:05:38;;;;;;;6.72;3.30;;;13.10;99.90;;;;;;5051838;28;20090;-78
2022/07/05 00:08:05;;;;;;;3.47;2.33;;;13.00;99.90;;;;;;5051937;28;20048;-78
2022/07/05 00:10:32;;;;;;;3.15;2.70;;;13.00;99.90;;;;;;5051598;28;20041;-77
2022/07/05 00:12:58;;;;;;;2.97;2.60;;;13.00;99.90;;;;;;5051823;28;20037;-78
2022/07/05 00:15:23;;;;;;;7.00;3.00;;;12.90;99.90;;;;;;5051691;28;20093;-78
2022/07/05 00:17:49;;;;;;;4.38;3.95;;;12.90;99.90;;;;;;5035198;28;20057;-78
2022/07/05 00:20:15;;;;;;;6.53;3.40;;;12.90;99.90;;;;;;5051330;28;20052;-78
2022/07/05 00:22:42;;;;;;;7.40;3.70;;;12.90;99.90;;;;;;5051625;28;20055;-78
2022/07/05 00:25:08;;;;;;;7.32;3.65;;;12.80;99.90;;;;;;5051064;28;20076;-78
2022/07/05 00:27:33;;;;;;;8.50;4.45;;;12.80;99.90;;;;;;5051267;28;20048;-78
2022/07/05 00:29:59;;;;;;;5.13;3.63;;;12.80;99.90;;;;;;5052338;28;20041;-78
2022/07/05 00:32:25;;;;;;;5.15;3.03;;;12.80;99.90;;;;;;5052723;28;20404;-78
2022/07/05 00:34:51;;;;;;;5.18;3.47;;;12.90;99.90;;;;;;5051267;28;20060;-78
2022/07/05 00:37:17;;;;;;;6.43;3.42;;;12.80;99.90;;;;;;5051220;28;20411;-78
2022/07/05 00:39:43;;;;;;;7.13;3.75;;;12.80;99.90;;;;;;5052039;28;20044;-78
2022/07/05 00:42:08;;;;;;;4.50;3.70;;;12.80;99.90;;;;;;5051240;28;20040;-78
2022/07/05 00:44:39;;;;;;;8.88;3.45;;;12.80;99.90;;;;;;5051137;28;20045;-78
2022/07/05 00:47:05;;;;;;;7.68;4.25;;;12.70;99.90;;;;;;5051034;28;20496;-79
2022/07/05 00:49:33;;;;;;;6.38;3.92;;;12.70;99.90;;;;;;5051244;28;20052;-78
2022/07/05 00:51:59;;;;;;;4.45;3.45;;;12.70;99.90;;;;;;5052415;28;20130;-79
2022/07/05 00:54:31;;;;;;;4.97;3.78;;;12.60;99.90;;;;;;5051039;28;20041;-78
2022/07/05 00:56:58;;;;;;;7.20;4.10;;;12.70;99.90;;;;;;5050641;28;20128;-79
2022/07/05 00:59:25;;;;;;;5.00;3.22;;;12.70;99.90;;;;;;5050737;28;20049;-78
2022/07/05 01:01:50;;;;;;;4.95;3.55;;;12.60;99.90;;;;;;5050531;28;20059;-78
2022/07/05 01:04:16;;;;;;;7.43;4.00;;;12.60;99.90;;;;;;5051109;28;20040;-78
2022/07/05 01:06:44;;;;;;;9.02;3.83;;;12.50;99.90;;;;;;5050766;28;20076;-78
2022/07/05 01:09:15;;;;;;;9.23;4.53;;;12.50;99.90;;;;;;5050391;28;20047;-78
2022/07/05 01:11:43;;;;;;;7.88;4.05;;;12.40;99.90;;;;;;5050763;28;20076;-78
2022/07/05 01:14:12;;;;;;;6.80;4.70;;;12.50;99.90;;;;;;5050374;28;20051;-78
2022/07/05 01:16:38;;;;;;;6.00;4.05;;;12.40;99.90;;;;;;5050592;28;20041;-78
2022/07/05 01:19:06;;;;;;;5.47;4.13;;;12.50;99.90;;;;;;5050531;28;20116;-77
2022/07/05 01:21:33;;;;;;;6.13;4.18;;;12.40;99.90;;;;;;5050134;28;20057;-78
2022/07/05 01:24:00;;;;;;;4.75;3.53;;;12.40;99.90;;;;;;5050626;28;20497;-78
2022/07/05 01:26:26;;;;;;;8.30;4.13;;;12.40;99.90;;;;;;5051538;28;20476;-78
2022/07/05 01:28:51;;;;;;;5.18;3.97;;;12.50;99.90;;;;;;5050072;28;20075;-78
2022/07/05 01:31:17;;;;;;;4.78;3.80;;;12.50;99.90;;;;;;5049978;28;20037;-78
2022/07/05 01:33:43;;;;;;;9.88;4.40;;;12.50;99.90;;;;;;5050021;28;20477;-78
2022/07/05 01:36:11;;;;;;;7.03;5.72;;;12.50;99.90;;;;;;5051288;28;20033;-78
2022/07/05 01:38:37;;;;;;;6.07;4.22;;;12.50;99.90;;;;;;5033482;28;20094;-77
2022/07/05 01:41:02;;;;;;;5.70;4.47;;;12.40;99.90;;;;;;5051054;28;20037;-78
2022/07/05 01:43:28;;;;;;;6.72;4.68;;;12.40;99.90;;;;;;5050109;28;20082;-79
2022/07/05 01:45:56;;;;;;;8.65;3.95;;;12.50;99.90;;;;;;5049643;28;20119;-77
2022/07/05 01:48:22;;;;;;;6.47;4.88;;;12.40;99.90;;;;;;5049265;28;20071;-78
2022/07/05 01:50:51;;;;;;;5.70;4.50;;;12.40;99.90;;;;;;5049536;28;20041;-78
2022/07/05 01:53:29;;;;;;;5.38;4.32;;;12.40;99.90;;;;;;5050135;28;20076;-78
2022/07/05 01:56:00;;;;;;;9.85;4.53;;;12.40;99.90;;;;;;5049839;28;20041;-78
2022/07/05 01:58:26;;;;;;;6.63;4.38;;;12.30;99.90;;;;;;5049875;28;20043;-78
2022/07/05 02:00:54;;;;;;;7.47;4.05;;;12.30;99.90;;;;;;5049686;28;20048;-78
2022/07/05 02:03:20;;;;;;;8.57;4.70;;;12.30;99.90;;;;;;5050776;28;20408;-78
2022/07/05 02:05:46;;;;;;;5.90;4.28;;;12.30;99.90;;;;;;5049313;28;20037;-78
2022/07/05 02:08:13;;;;;;;6.20;4.72;;;12.30;99.90;;;;;;5050341;28;20131;-78
2022/07/05 02:10:39;;;;;;;5.75;4.03;;;12.40;99.90;;;;;;5050666;28;20100;-78
2022/07/05 02:13:07;;;;;;;7.55;4.53;;;12.20;99.90;;;;;;5051449;28;20033;-78
2022/07/05 02:15:34;;;;;;;7.10;4.57;;;12.30;99.90;;;;;;5051308;28;20048;-78
2022/07/05 02:18:01;;;;;;;7.10;4.32;;;12.20;99.90;;;;;;5051381;28;20049;-78
2022/07/05 02:20:27;;;;;;;7.10;4.50;;;12.20;99.90;;;;;;5052027;28;20116;-78
2022/07/05 02:22:53;;;;;;;5.22;4.55;;;12.10;99.90;;;;;;5034576;28;20044;-78
2022/07/05 02:25:18;;;;;;;6.32;4.75;;;12.20;99.90;;;;;;5051393;28;20037;-78
2022/07/05 02:27:44;;;;;;;9.18;5.00;;;12.20;99.90;;;;;;5050978;28;20487;-78
2022/07/05 02:30:10;;;;;;;7.03;4.57;;;12.20;99.90;;;;;;5050615;28;20073;-78
2022/07/05 02:32:36;;;;;;;7.63;4.72;;;12.20;99.90;;;;;;5050558;28;20087;-78
2022/07/05 02:35:03;;;;;;;7.60;5.15;;;12.20;99.90;;;;;;5050755;28;20041;-78
2022/07/05 02:37:29;;;;;;;8.52;4.88;;;12.20;99.90;;;;;;5050752;28;20040;-78
2022/07/05 02:39:54;;;;;;;9.50;4.68;;;12.10;99.90;;;;;;5050692;28;20045;-78
2022/07/05 02:42:20;;;;;;;6.15;5.05;;;12.20;99.90;;;;;;5051150;28;20103;-78
2022/07/05 02:44:46;;;;;;;8.52;5.30;;;12.10;99.90;;;;;;5052986;28;20392;-78
2022/07/05 02:47:11;;;;;;;7.55;4.93;;;12.10;99.90;;;;;;5052632;28;20484;-78
2022/07/05 02:49:37;;;;;;;8.52;4.93;;;12.10;99.90;;;;;;5051279;28;20111;-78
2022/07/05 02:52:03;;;;;;;8.10;5.10;;;12.10;99.90;;;;;;5051402;28;20037;-78
2022/07/05 02:54:28;;;;;;;9.18;5.40;;;12.10;99.90;;;;;;5052152;28;20043;-78
2022/07/05 02:56:54;;;;;;;9.55;5.65;;;12.10;99.90;;;;;;5051251;28;20045;-78
2022/07/05 02:59:19;;;;;;;10.25;5.38;;;12.20;99.90;;;;;;5037564;28;20037;-78
2022/07/05 03:01:45;;;;;;;13.35;5.85;;;12.10;99.90;;;;;;5055650;28;20045;-78
2022/07/05 03:04:11;;;;;;;9.00;6.00;;;12.10;99.90;;;;;;5055179;28;20041;-78
2022/07/05 03:06:37;;;;;;;8.25;5.13;;;12.10;99.90;;;;;;5055587;28;20424;-79
2022/07/05 03:09:02;;;;;;;9.82;6.13;;;12.10;99.90;;;;;;5055296;28;20029;-78
2022/07/05 03:11:28;;;;;;;10.95;5.40;;;12.10;99.90;;;;;;5055115;28;20433;-79
2022/07/05 03:13:54;;;;;;;10.23;6.45;;;12.10;99.90;;;;;;5055017;28;20083;-78
2022/07/05 03:16:19;;;;;;;10.02;6.65;;;12.20;99.90;;;;;;5055839;28;20063;-78
2022/07/05 03:18:45;;;;;;;9.48;6.20;;;12.10;99.90;;;;;;5055618;28;20052;-78
2022/07/05 03:21:10;;;;;;;9.38;5.80;;;12.10;99.90;;;;;;5056238;28;20045;-78
2022/07/05 03:23:36;;;;;;;7.78;5.15;;;12.00;99.90;;;;;;5055396;28;20101;-78
2022/07/05 03:26:01;;;;;;;10.73;6.03;;;12.10;99.90;;;;;;5055293;28;20124;-78
2022/07/05 03:28:27;;;;;;;10.85;6.22;;;12.10;99.90;;;;;;5055120;28;20056;-78
2022/07/05 03:30:53;;;;;;;11.20;6.03;;;12.10;99.90;;;;;;5055433;28;20043;-78
2022/07/05 03:33:18;;;;;;;8.88;6.20;;;12.20;99.90;;;;;;5038578;28;20049;-78
2022/07/05 03:35:44;;;;;;;9.23;5.97;;;12.10;99.90;;;;;;5056234;28;20048;-78
2022/07/05 03:38:09;;;;;;;10.85;6.38;;;12.10;99.90;;;;;;5054968;28;20044;-78
2022/07/05 03:40:35;;;;;;;11.43;6.10;;;12.10;99.90;;;;;;5054869;28;20049;-78
2022/07/05 03:43:01;;;;;;;7.95;6.28;;;12.20;99.90;;;;;;5055178;28;20045;-78
2022/07/05 03:45:26;;;;;;;12.23;6.53;;;12.10;99.90;;;;;;5055101;28;20404;-78
2022/07/05 03:47:52;;;;;;;12.70;7.00;;;12.10;99.90;;;;;;5054440;28;20052;-79
2022/07/05 03:50:17;;;;;;;8.35;5.82;;;12.20;99.90;;;;;;5054865;28;20045;-79
2022/07/05 03:52:43;;;;;;;8.25;6.13;;;12.30;99.90;;;;;;5055443;28;20045;-78
2022/07/05 03:55:09;;;;;;;8.45;6.25;;;12.40;99.90;;;;;;5055306;28;20480;-78
2022/07/05 03:57:34;;;;;;;9.05;6.22;;;12.40;99.90;;;;;;5054100;28;20057;-78
2022/07/05 04:00:00;;;;;;;9.85;6.28;;;12.50;99.90;;;;;;5051464;28;20047;-79
2022/07/05 04:02:26;;;;;;;11.80;6.35;;;12.60;99.90;;;;;;5051757;28;20543;-78
2022/07/05 04:04:51;;;;;;;11.40;6.53;;;12.60;99.90;;;;;;5052032;28;20131;-78
2022/07/05 04:07:17;;;;;;;10.27;6.68;;;12.70;99.90;;;;;;5051446;28;20071;-78
2022/07/05 04:09:42;;;;;;;9.50;6.78;;;12.70;99.90;;;;;;5050886;28;20400;-78
2022/07/05 04:12:08;;;;;;;12.60;6.93;;;12.80;99.90;;;;;;5051400;28;20098;-78
2022/07/05 04:14:34;;;;;;;9.70;6.28;;;12.90;99.90;;;;;;5051677;28;20044;-77
2022/07/05 04:17:00;;;;;;;9.18;6.53;;;13.00;99.90;;;;;;5051819;28;20373;-77
2022/07/05 04:19:25;;;;;;;12.50;7.05;;;13.00;99.90;;;;;;5035590;28;20097;-77
2022/07/05 04:21:51;;;;;;;10.32;7.03;;;13.10;99.90;;;;;;5051963;28;20056;-77
2022/07/05 04:24:17;;;;;;;11.88;6.82;;;13.20;99.90;;;;;;5051482;28;20044;-77
2022/07/05 04:26:42;;;;;;;9.93;6.60;;;13.30;99.90;;;;;;5051562;28;20047;-76
2022/07/05 04:29:08;;;;;;;12.43;6.65;;;13.40;99.90;;;;;;5054891;28;20037;-79
2022/07/05 04:31:34;;;;;;;12.27;6.93;;;13.50;99.90;;;;;;5070887;28;20152;-82
2022/07/05 04:34:00;;;;;;;10.52;6.63;;;13.50;99.90;;;;;;5062583;28;20041;-77
2022/07/05 04:36:26;;;;;;;11.35;6.50;;;13.60;99.90;;;;;;5051820;28;20401;-77
2022/07/05 04:38:51;;;;;;;8.52;6.10;;;13.80;99.90;;;;;;5051478;28;20048;-77
2022/07/05 04:41:17;;;;;;;10.38;6.40;;;13.80;99.90;;;;;;5051408;28;20033;-79
2022/07/05 04:43:43;;;;;;;10.75;6.30;;;13.90;99.90;;;;;;5051423;28;20033;-76
2022/07/05 04:46:08;;;;;;;9.57;6.90;;;14.00;99.90;;;;;;5052145;28;20043;-80
2022/07/05 04:48:34;;;;;;;11.60;6.07;;;14.00;99.90;;;;;;5054543;28;20557;-79
2022/07/05 04:50:59;;;;;;;9.30;5.90;;;14.10;99.90;;;;;;5052589;28;20125;-79
2022/07/05 04:53:25;;;;;;;8.60;6.15;;;14.20;99.90;;;;;;5052755;28;20484;-79
2022/07/05 04:55:51;;;;;;;7.40;6.18;;;14.20;99.90;;;;;;5052332;28;20044;-79
2022/07/05 04:58:16;;;;;;;8.75;6.15;;;14.30;99.90;;;;;;5036465;28;20044;-80
2022/07/05 05:00:42;;;;;;;7.63;5.85;;;14.40;99.90;;;;;;5051591;28;20063;-79
2022/07/05 05:03:07;;;;;;;7.60;5.57;;;14.40;99.90;;;;;;5051637;28;20095;-79
2022/07/05 05:05:33;;;;;;;9.45;6.18;;;14.50;99.90;;;;;;5051094;28;20123;-79
2022/07/05 05:07:59;;;;;;;9.35;6.40;;;14.60;99.90;;;;;;5051213;28;20045;-79
2022/07/05 05:10:24;;;;;;;12.70;6.18;;;14.60;99.90;;;;;;5050693;28;20043;-79
2022/07/05 05:12:50;;;;;;;12.00;6.35;;;14.70;99.90;;;;;;5050918;28;20072;-79
2022/07/05 05:15:16;;;;;;;8.18;5.82;;;14.80;99.90;;;;;;5050855;28;20068;-79
2022/07/05 05:17:43;;;;;;;13.20;6.32;;;14.80;99.90;;;;;;5051245;28;20087;-79
2022/07/05 05:20:14;;;;;;;10.10;5.57;;;15.10;99.90;;;;;;5050183;28;20043;-79
2022/07/05 05:22:40;;;;;;;7.22;5.80;;;15.80;99.90;;;;;;5033551;28;20049;-78
2022/07/05 05:25:06;;;;;;;5.97;5.38;;;16.60;99.90;;;;;;5050629;28;20047;-78
2022/07/05 05:27:32;;;;;;;9.98;6.20;;;17.30;99.90;;;;;;5049897;28;20060;-78
2022/07/05 05:29:58;;;;;;;4.90;4.22;;;18.00;99.90;;;;;;5049760;28;20120;-78
2022/07/05 05:32:23;;;;;;;7.88;4.90;;;18.50;99.90;;;;;;5050433;28;20040;-78
2022/07/05 05:34:49;;;;;;;8.35;6.75;;;18.90;99.90;;;;;;5051350;28;20044;-78
2022/07/05 05:37:17;;;;;;;12.18;7.65;;;19.40;99.90;;;;;;5050042;28;20040;-79
2022/07/05 05:39:43;;;;;;;7.55;5.13;;;19.80;99.90;;;;;;5049810;28;20045;-80
2022/07/05 05:42:08;;;;;;;5.47;4.72;;;20.20;99.90;;;;;;5049614;28;20560;-78
2022/07/05 05:44:40;;;;;;;7.65;4.25;;;20.40;99.90;;;;;;5149505;27;20385;-78
2022/07/05 05:47:06;;;;;;;4.78;4.18;;;20.60;99.90;;;;;;5149566;27;20099;-77
2022/07/05 05:49:32;;;;;;;6.80;4.25;;;20.80;99.90;;;;;;5148024;27;20095;-79
2022/07/05 05:51:57;;;;;;;8.57;3.80;;;21.00;99.90;;;;;;5148493;27;20042;-79
2022/07/05 05:54:23;;;;;;;6.15;3.97;;;21.00;99.90;;;;;;5148382;27;20050;-77
2022/07/05 05:56:48;;;;;;;5.72;4.10;;;21.10;99.90;;;;;;5148182;27;20546;-78
2022/07/05 05:59:14;;;;;;;6.28;4.05;;;21.40;99.90;;;;;;5148983;27;20042;-79
2022/07/05 06:01:39;;;;;;;8.35;4.10;;;21.40;99.90;;;;;;5148425;27;20039;-78
2022/07/05 06:04:05;;;;;;;4.45;3.90;;;21.60;99.90;;;;;;5131381;27;20047;-79
2022/07/05 06:06:31;;;;;;;7.25;3.83;;;21.80;99.90;;;;;;5150339;27;20034;-78
2022/07/05 06:08:56;;;;;;;5.38;3.75;;;21.90;99.90;;;;;;5149247;27;20041;-78
2022/07/05 06:11:22;;;;;;;8.30;3.72;;;22.10;99.90;;;;;;5148954;27;20035;-78
2022/07/05 06:13:47;;;;;;;5.75;3.65;;;22.10;99.90;;;;;;5148785;27;20054;-79
2022/07/05 06:16:13;;;;;;;5.10;3.58;;;22.30;99.90;;;;;;5147910;27;20116;-79
2022/07/05 06:18:38;;;;;;;5.70;3.40;;;22.50;99.90;;;;;;5147667;27;20380;-79
2022/07/05 06:21:04;;;;;;;4.82;3.30;;;22.70;99.90;;;;;;5147676;27;20429;-79
2022/07/05 06:23:30;;;;;;;3.80;3.10;;;22.70;99.90;;;;;;5148382;27;20122;-79
2022/07/05 06:25:55;;;;;;;5.82;3.17;;;22.90;99.90;;;;;;5148388;27;20500;-79
2022/07/05 06:28:21;;;;;;;3.88;2.75;;;23.00;99.90;;;;;;5148725;27;20038;-75
2022/07/05 06:30:47;;;;;;;4.38;2.70;;;22.90;99.90;;;;;;5150010;27;20045;-78
2022/07/05 06:33:12;;;;;;;4.30;2.70;;;22.80;99.90;;;;;;5149102;27;20590;-77
2022/07/05 06:35:38;;;;;;;5.13;2.97;;;22.70;99.90;;;;;;5147343;27;20039;-78
2022/07/05 06:38:06;;;;;;;4.88;2.97;;;22.60;99.90;;;;;;5144567;27;20039;-78
2022/07/05 06:40:34;;;;;;;6.10;2.20;;;22.50;99.90;;;;;;5128732;27;20043;-78
2022/07/05 06:43:02;;;;;;;4.22;2.45;;;22.60;99.90;;;;;;5146265;27;20489;-78
2022/07/05 06:45:28;;;;;;;4.53;2.22;;;22.70;99.90;;;;;;5129729;27;20047;-78
2022/07/05 06:47:59;;;;;;;3.55;2.00;;;22.50;99.90;;;;;;5147563;27;20170;-78
2022/07/05 06:50:26;;;;;;;3.22;1.80;;;22.50;99.90;;;;;;5145106;27;20030;-78
2022/07/05 06:52:51;;;;;;;6.03;1.60;;;22.40;99.90;;;;;;5146277;27;20509;-79
2022/07/05 06:55:17;;;;;;;3.38;1.30;;;22.50;99.90;;;;;;5119726;27;20039;-79
2022/07/05 06:57:43;;;;;;;3.85;1.27;;;22.50;99.90;;;;;;5116506;27;20051;-77
2022/07/05 07:00:10;;;;;;;5.30;1.50;;;22.40;99.90;;;;;;5111333;28;20220;-77
2022/07/05 07:02:35;;;;;;;5.03;1.65;;;22.50;99.90;;;;;;5111617;28;20451;-76
2022/07/05 07:05:01;;;;;;;4.82;1.50;;;22.70;99.90;;;;;;5111444;28;20047;-76
2022/07/05 07:10:11;;;;;;;2.90;1.48;;;23.10;99.90;;;;;;5111010;28;20047;-76
2022/07/05 07:12:36;;;;;;;6.13;2.00;;;22.80;99.90;;;;;;5111298;28;20551;-76
2022/07/05 07:15:02;;;;;;;4.90;1.40;;;22.70;99.90;;;;;;5112403;28;20039;-76
2022/07/05 07:17:28;;;;;;;4.32;1.20;;;22.60;99.90;;;;;;5111394;28;20046;-74
2022/07/05 07:19:54;;;;;;;5.10;1.17;;;22.40;99.90;;;;;;5111106;28;20509;-75
2022/07/05 07:22:20;;;;;;;4.55;0.80;;;22.10;99.90;;;;;;5111322;27;20042;-75
2022/07/05 07:24:46;;;;;;;4.32;1.33;;;22.00;99.90;;;;;;5111064;28;20108;-75
2022/07/05 07:27:11;;;;;;;1.25;0.50;;;21.70;99.90;;;;;;5093953;28;20144;-74
2022/07/05 07:29:39;;;;;;;2.53;0.70;;;21.40;99.90;;;;;;5111979;28;20081;-75
2022/07/05 07:32:06;;;;;;;3.47;0.80;;;21.40;99.90;;;;;;5110572;28;20491;-75
2022/07/05 07:34:33;;;;;;;3.65;1.10;;;21.40;99.90;;;;;;5129659;27;20371;-75
2022/07/05 07:36:59;;;;;;;3.55;1.05;;;21.40;99.90;;;;;;5131550;27;20113;-75
2022/07/05 07:39:26;;;;;;;3.78;1.40;;;21.50;99.90;;;;;;5129024;27;20255;-74
2022/07/05 07:41:52;;;;;;;2.47;0.82;;;21.60;99.90;;;;;;5110599;28;20122;-75
2022/07/05 07:44:18;;;;;;;1.83;0.75;;;21.70;99.90;;;;;;5111784;28;20122;-76
2022/07/05 07:46:45;;;;;;;6.75;0.95;;;21.60;99.90;;;;;;5110671;28;20039;-77
2022/07/05 07:49:12;;;;;;;4.15;0.82;;;21.40;99.90;;;;;;5110426;28;20047;-75
2022/07/05 07:51:38;;;;;;;3.53;0.75;;;21.50;99.90;;;;;;5111637;28;20050;-75
2022/07/05 07:54:03;;;;;;;4.50;0.90;;;21.80;99.90;;;;;;5110551;28;20051;-75
2022/07/05 07:56:29;;;;;;;2.95;0.90;;;22.10;99.90;;;;;;5114161;28;20042;-75
2022/07/05 07:58:55;;;;;;;4.57;0.80;;;22.40;99.90;;;;;;5113081;28;20031;-76
2022/07/05 08:01:21;;;;;;;4.22;0.90;;;22.40;99.90;;;;;;5110950;28;20088;-74
2022/07/05 08:03:47;;;;;;;2.40;0.60;;;22.30;99.90;;;;;;5111308;28;20040;-75
2022/07/05 08:06:13;;;;;;;2.03;0.95;;;22.00;99.90;;;;;;5110776;28;20079;-77
2022/07/05 08:08:40;;;;;;;2.67;0.73;;;22.00;99.90;;;;;;5093398;28;20074;-74
2022/07/05 08:11:08;;;;;;;2.05;0.60;;;21.80;99.90;;;;;;5110405;28;20074;-74
2022/07/05 08:13:34;;;;;;;3.22;0.85;;;21.50;99.90;;;;;;5113719;27;20039;-75
2022/07/05 08:16:00;;;;;;;1.83;0.85;;;21.40;99.90;;;;;;5112557;27;20054;-77
2022/07/05 08:23:56;;;;;;;3.08;1.05;;;21.80;99.90;;;;;;5131487;27;20160;-73
2022/07/05 08:26:21;;;;;;;3.08;0.80;;;22.50;99.90;;;;;;5131306;27;20035;-73
2022/07/05 08:28:47;;;;;;;1.30;0.50;;;23.00;99.40;;;;;;5131584;27;20039;-73
2022/07/05 08:31:13;;;;;;;3.95;0.80;;;23.20;98.30;;;;;;5132146;27;20490;-73
2022/07/05 08:33:39;;;;;;;6.00;0.82;;;23.00;98.00;;;;;;5132556;27;20083;-73
2022/07/05 08:36:05;;;;;;;3.78;0.80;;;22.50;97.80;;;;;;5130786;27;20118;-73
2022/07/05 08:38:30;;;;;;;2.97;0.95;;;22.20;98.20;;;;;;5131151;27;20108;-73
2022/07/05 08:40:57;;;;;;;1.38;0.70;;;22.00;98.70;;;;;;5131004;27;20439;-73
2022/07/05 08:43:24;;;;;;;4.35;1.90;;;22.10;98.60;;;;;;5130661;27;20450;-74
2022/07/05 08:45:52;;;;;;;2.38;1.05;;;22.30;98.10;;;;;;5130791;27;20111;-74
2022/07/05 08:48:19;;;;;;;1.23;0.70;;;22.80;98.10;;;;;;5132515;27;20078;-74
2022/07/05 08:50:48;;;;;;;2.60;1.00;;;23.10;97.40;;;;;;5130754;27;20054;-74
2022/07/05 08:53:15;;;;;;;1.58;0.85;;;23.20;97.40;;;;;;5132587;27;20075;-74
2022/07/05 08:55:40;;;;;;;2.40;0.90;;;23.10;95.70;;;;;;5130830;27;20043;-75
2022/07/05 08:58:06;;;;;;;3.72;1.00;;;22.80;95.00;;;;;;5130821;27;20122;-75
2022/07/05 09:00:32;;;;;;;1.58;0.70;;;22.80;95.90;;;;;;5130334;27;20039;-74
2022/07/05 09:02:58;;;;;;;4.05;0.90;;;23.10;96.20;;;;;;5130960;27;20075;-74
2022/07/05 09:05:25;;;;;;;5.75;0.90;;;23.40;96.50;;;;;;5132213;27;20059;-74
2022/07/05 09:08:01;;;;;;;3.95;0.90;;;23.30;95.60;;;;;;5130422;27;20409;-73
2022/07/05 09:10:31;;;;;;;1.90;0.68;;;23.10;94.10;;;;;;5131406;27;20501;-73
2022/07/05 09:12:57;;;;;;;3.80;0.68;;;22.70;93.30;;;;;;5130393;27;20050;-73
2022/07/05 09:15:24;;;;;;;4.45;1.08;;;22.30;94.20;;;;;;5130445;27;20043;-73
2022/07/05 09:17:49;;;;;;;2.90;1.08;;;22.00;94.60;;;;;;5130111;27;20122;-74
2022/07/05 09:20:17;;;;;;;4.38;1.00;;;21.80;94.90;;;;;;5131558;27;20121;-73
2022/07/05 09:22:54;;;;;;;2.42;0.70;;;21.70;96.00;;;;;;5130473;27;20035;-73
2022/07/05 09:25:21;;;;;;;5.65;0.80;;;21.60;96.60;;;;;;5130289;27;20105;-74
2022/07/05 09:28:01;;;;;;;1.35;0.70;;;21.50;96.90;;;;;;5130067;27;20046;-73
2022/07/05 09:30:30;;;;;;;1.23;0.57;;;21.50;97.60;;;;;;5129938;27;20035;-72
2022/07/05 09:33:02;;;;;;;4.47;0.90;;;21.70;96.80;;;;;;5130266;27;20070;-73
2022/07/05 09:35:39;;;;;;;4.63;0.93;;;22.00;97.40;;;;;;5130189;27;20431;-78
2022/07/05 09:38:16;;;;;;;2.25;0.90;;;22.10;97.00;;;;;;5113514;27;20194;-77
2022/07/05 09:40:58;;;;;;;4.43;0.80;;;22.30;96.50;;;;;;5130164;27;20490;-77
2022/07/05 09:43:26;;;;;;;1.77;0.65;;;22.60;97.80;;;;;;5129950;28;20122;-78
2022/07/05 09:45:55;;;;;;;3.42;1.15;;;22.90;96.60;;;;;;5112969;28;20066;-76
2022/07/05 09:48:21;;;;;;;4.28;0.80;;;23.30;93.90;;;;;;5130003;27;20038;-78
2022/07/05 09:50:49;;;;;;;3.45;0.80;;;23.10;93.90;;;;;;5130076;28;20039;-79
2022/07/05 09:53:15;;;;;;;2.58;0.57;;;23.00;92.90;;;;;;5130103;28;20043;-78
2022/07/05 09:55:41;;;;;;;3.63;1.00;;;22.90;93.20;;;;;;5130425;27;20065;-78
2022/07/05 09:58:07;;;;;;;1.40;0.77;;;22.60;92.90;;;;;;5130574;28;20077;-79
2022/07/05 10:00:33;;;;;;;3.17;1.00;;;22.50;92.30;;;;;;5129729;28;20046;-79
2022/07/05 10:03:01;;;;;;;2.90;1.25;;;22.70;93.40;;;;;;5113151;28;20043;-79
2022/07/05 10:05:30;;;;;;;2.08;1.00;;;22.70;92.30;;;;;;5129638;28;20043;-78
2022/07/05 10:07:57;;;;;;;0.93;0.50;;;22.70;92.30;;;;;;5112798;28;20096;-79
2022/07/05 10:10:25;;;;;;;3.08;0.95;;;22.80;92.40;;;;;;5129780;27;20031;-79
2022/07/05 10:12:53;;;;;;;5.00;0.90;;;22.70;91.80;;;;;;5130052;28;20111;-78
2022/07/05 10:15:21;;;;;;;3.30;0.65;;;22.50;91.60;;;;;;5129855;28;20054;-80
2022/07/05 10:18:04;;;;;;;2.20;0.73;;;22.40;92.10;;;;;;5129897;28;20050;-78
2022/07/05 10:20:43;;;;;;;1.35;0.80;;;22.30;90.80;;;;;;5129962;27;20035;-78
2022/07/05 10:23:16;;;;;;;9.80;4.97;;;22.00;90.40;;;;;;5129539;28;20498;-78
2022/07/05 10:25:48;;;;;;;3.15;0.90;;;21.80;91.40;;;;;;5129621;27;20032;-78
2022/07/05 10:28:15;;;;;;;3.97;1.05;;;21.60;92.40;;;;;;5130529;28;20082;-78
2022/07/05 10:30:41;;;;;;;4.53;0.98;;;21.60;92.50;;;;;;5132159;27;20564;-78
2022/07/05 10:33:07;;;;;;;3.38;0.98;;;22.10;93.70;;;;;;5133822;27;20035;-78
2022/07/05 10:35:34;;;;;;;4.07;0.82;;;22.50;93.00;;;;;;5134130;27;20485;-77
2022/07/05 10:38:01;;;;;;;4.40;1.20;;;22.50;91.10;;;;;;5116363;27;20043;-78
2022/07/05 10:40:29;;;;;;;1.02;0.73;;;22.40;92.10;;;;;;5134414;27;20614;-79
2022/07/05 10:42:58;;;;;;;4.80;1.15;;;22.40;93.60;;;;;;5117279;27;20043;-79
2022/07/05 10:45:25;;;;;;;3.83;1.00;;;22.30;93.80;;;;;;5134500;27;20118;-79
2022/07/05 10:48:09;;;;;;;3.17;1.10;;;22.10;94.20;;;;;;5134567;27;20046;-79
2022/07/05 10:50:46;;;;;;;2.33;0.82;;;21.90;95.70;;;;;;5117797;27;20047;-79
2022/07/05 10:53:12;;;;;;;2.85;0.82;;;21.60;96.00;;;;;;5118125;27;20521;-79
2022/07/05 10:55:47;;;;;;;2.08;0.80;;;21.40;96.30;;;;;;5134498;27;20043;-79
2022/07/05 10:58:24;;;;;;;3.65;0.73;;;21.50;97.50;;;;;;5134162;27;20082;-79
2022/07/05 11:01:15;;;;;;;2.75;1.10;;;22.00;97.60;;;;;;5134651;27;20517;-79
2022/07/05 11:03:46;;;;;;;3.25;1.23;;;22.50;96.20;;;;;;5117301;27;20497;-79
2022/07/05 11:06:43;;;;;;;4.70;1.20;;;22.50;95.80;;;;;;5117807;27;20031;-80
2022/07/05 11:09:11;;;;;;;3.13;1.15;;;22.20;95.40;;;;;;5133735;27;20047;-79
2022/07/05 11:11:42;;;;;;;3.95;1.05;;;22.30;95.70;;;;;;5116783;27;20039;-79
2022/07/05 11:14:20;;;;;;;2.83;1.30;;;22.30;96.60;;;;;;5116733;27;20039;-79
2022/07/05 11:16:47;;;;;;;4.32;1.15;;;22.20;96.80;;;;;;5133668;27;20047;-79
2022/07/05 11:19:20;;;;;;;4.65;1.00;;;22.00;97.10;;;;;;5116978;27;20442;-79
2022/07/05 11:22:07;;;;;;;3.50;1.10;;;21.70;97.90;;;;;;5116910;27;20047;-80
2022/07/05 11:24:34;;;;;;;4.10;1.65;;;21.60;98.30;;;;;;5117104;27;20047;-80
2022/07/05 11:27:03;;;;;;;5.15;1.02;;;21.50;98.50;;;;;;5135551;27;20031;-79
2022/07/05 11:29:41;;;;;;;5.50;1.35;;;21.40;98.30;;;;;;5134651;27;20042;-79
2022/07/05 11:32:09;;;;;;;2.42;0.90;;;21.40;98.70;;;;;;5155629;27;20049;-79
2022/07/05 11:34:36;;;;;;;4.85;0.80;;;21.30;98.60;;;;;;5137982;27;20084;-80
2022/07/05 11:37:14;;;;;;;3.63;0.98;;;21.20;99.10;;;;;;5117913;27;20043;-80
2022/07/05 11:39:45;;;;;;;4.55;1.00;;;21.20;98.90;;;;;;5116800;27;20147;-80
2022/07/05 11:42:18;;;;;;;4.60;1.20;;;21.30;99.20;;;;;;5133777;27;20043;-79
2022/07/05 11:44:45;;;;;;;4.28;0.90;;;21.60;98.70;;;;;;5132801;27;20451;-81
2022/07/05 11:47:13;;;;;;;4.22;0.90;;;22.10;98.00;;;;;;5133007;27;20100;-81
2022/07/05 11:49:38;;;;;;;3.20;0.98;;;22.50;97.20;;;;;;5115576;27;20114;-80
2022/07/05 11:52:04;;;;;;;3.90;0.65;;;22.60;95.90;;;;;;5132717;27;20106;-80
2022/07/05 11:54:33;;;;;;;1.52;0.70;;;22.80;95.90;;;;;;5134067;27;20039;-80
2022/07/05 11:57:00;;;;;;;3.35;1.10;;;23.10;95.40;;;;;;5133511;27;20092;-79
2022/07/05 11:59:26;;;;;;;3.22;0.70;;;23.20;93.90;;;;;;5133689;27;20095;-78
2022/07/05 12:01:52;;;;;;;5.00;0.85;;;23.10;92.90;;;;;;5133848;27;20453;-79
2022/07/05 12:04:25;;;;;;;3.03;0.88;;;22.90;92.10;;;;;;5132425;27;20035;-79
2022/07/05 12:06:51;;;;;;;5.45;0.77;;;23.00;92.50;;;;;;5132569;27;20126;-78
2022/07/05 12:09:26;;;;;;;3.10;0.70;;;23.30;90.40;;;;;;5133403;27;20114;-78
2022/07/05 12:14:45;;;;;;;3.55;0.80;;;23.20;83.30;;;;;;5132810;27;20096;-79
2022/07/05 12:17:19;;;;;;;2.58;0.65;;;23.00;82.40;;;;;;5132528;27;20053;-79
2022/07/05 12:19:45;;;;;;;3.55;0.90;;;23.20;84.60;;;;;;5132816;27;20051;-78
2022/07/05 12:22:11;;;;;;;2.78;0.80;;;23.60;84.30;;;;;;5132435;27;20187;-79
2022/07/05 12:24:37;;;;;;;2.75;0.95;;;23.80;79.70;;;;;;5114484;27;20045;-79
2022/07/05 12:27:03;;;;;;;2.90;0.70;;;23.80;76.50;;;;;;5115517;27;20043;-79
2022/07/05 12:29:29;;;;;;;2.85;1.20;;;24.00;74.80;;;;;;5131365;27;20031;-79
2022/07/05 12:32:00;;;;;;;2.15;1.20;;;24.00;74.50;;;;;;5114859;27;20087;-78
2022/07/05 12:34:25;;;;;;;1.08;0.50;;;24.00;69.90;;;;;;5132657;27;20439;-79
2022/07/05 12:36:51;;;;;;;1.65;0.68;;;24.00;75.40;;;;;;5132120;27;20055;-79
2022/07/05 12:39:17;;;;;;;1.83;0.65;;;24.10;73.60;;;;;;5132671;27;20050;-79
2022/07/05 12:41:43;;;;;;;2.75;0.50;;;24.00;68.30;;;;;;5115250;27;20047;-79
2022/07/05 12:44:09;;;;;;;2.20;0.50;;;23.90;65.40;;;;;;5131943;27;20482;-78
2022/07/05 12:46:38;;;;;;;1.55;0.88;;;23.60;64.70;;;;;;5131914;27;20125;-79
2022/07/05 12:49:05;;;;;;;3.25;0.50;;;23.60;64.60;;;;;;5131746;27;20039;-79
2022/07/05 12:51:39;;;;;;;3.90;1.23;;;23.60;64.20;;;;;;5132876;27;20100;-79
2022/07/05 13:00:07;;;;;;;2.72;0.40;;;23.40;66.60;;;;;;5132911;27;20099;-78
2022/07/05 13:02:38;;;;;;;3.03;0.60;;;23.30;67.40;;;;;;5132104;27;20047;-77